Time;durP1;ratioP1;P1;durP2;ratioP2;P2;SDS_P1;SDS_P2;PMS_P1;PMS_P2;Temp;Humidity;BMP_temperature;BMP_pressure;BME280_temperature;BME280_humidity;BME280_pressure;Samples;Min_cycle;Max_cycle;Signal;HPM_P1;HPM_P2
2023/01/31 00:01:25;;;;;;;;;;;3.70;99.90;;;;;;5009114;28;19921;-72
2023/01/31 00:03:54;;;;;;;;;;;3.80;99.90;;;;;;5008763;28;20326;-72
2023/01/31 00:06:21;;;;;;;;;;;3.70;99.90;;;;;;5012608;28;19921;-72
2023/01/31 00:08:47;;;;;;;;;;;3.70;99.90;;;;;;5011148;28;19925;-72
2023/01/31 00:11:13;;;;;;;;;;;3.70;99.90;;;;;;5009783;28;19928;-72
2023/01/31 00:13:39;;;;;;;;;;;3.70;99.90;;;;;;5011217;28;20314;-73
2023/01/31 00:16:05;;;;;;;;;;;3.70;99.90;;;;;;5008211;28;19925;-72
2023/01/31 00:18:31;;;;;;;;;;;3.70;99.90;;;;;;5010720;28;19921;-72
2023/01/31 00:20:57;;;;;;;;;;;3.80;99.90;;;;;;5010675;28;19922;-72
2023/01/31 00:23:22;;;;;;;;;;;3.90;99.90;;;;;;5012129;28;19922;-72
2023/01/31 00:25:48;;;;;;;;;;;3.60;99.90;;;;;;5009650;28;19921;-72
2023/01/31 00:28:13;;;;;;;;;;;3.80;99.90;;;;;;5011582;28;20364;-72
2023/01/31 00:30:39;;;;;;;;;;;3.60;99.90;;;;;;5013689;28;19975;-72
2023/01/31 00:33:04;;;;;;;;;;;3.60;99.90;;;;;;5013214;28;19925;-72
2023/01/31 00:35:30;;;;;;;;;;;3.60;99.90;;;;;;5013120;28;19921;-72
2023/01/31 00:37:55;;;;;;;;;;;3.60;99.90;;;;;;5011072;28;20932;-73
2023/01/31 00:40:21;;;;;;;;;;;3.60;99.90;;;;;;5013534;28;20290;-72
2023/01/31 00:42:46;;;;;;;;;;;3.60;99.90;;;;;;5011991;28;19991;-72
2023/01/31 00:45:12;;;;;;;;;;;3.60;99.90;;;;;;5012423;28;19921;-73
2023/01/31 00:47:37;;;;;;;;;;;3.60;99.90;;;;;;5014539;28;19925;-72
2023/01/31 00:50:04;;;;;;;;;;;3.60;99.90;;;;;;5011951;28;19922;-72
2023/01/31 00:52:29;;;;;;;;;;;3.60;99.90;;;;;;5014986;28;20013;-72
2023/01/31 00:54:55;;;;;;;;;;;3.60;99.90;;;;;;5012963;28;20361;-73
2023/01/31 00:57:20;;;;;;;;;;;3.50;99.90;;;;;;5013183;28;19929;-72
2023/01/31 00:59:46;;;;;;;;;;;3.60;99.90;;;;;;5011146;28;20345;-70
2023/01/31 01:02:11;;;;;;;;;;;3.50;99.90;;;;;;5013485;28;20341;-75
2023/01/31 01:04:37;;;;;;;;;;;3.50;99.90;;;;;;5012436;28;19936;-72
2023/01/31 01:07:02;;;;;;;;;;;3.40;99.90;;;;;;5013916;28;20371;-72
2023/01/31 01:09:28;;;;;;;;;;;3.40;99.90;;;;;;5011530;28;20366;-72
2023/01/31 01:11:53;;;;;;;;;;;3.30;99.90;;;;;;5011661;28;19921;-72
2023/01/31 01:14:19;;;;;;;;;;;3.30;99.90;;;;;;5012281;28;19921;-72
2023/01/31 01:16:44;;;;;;;;;;;3.30;99.90;;;;;;5012328;28;19922;-73
2023/01/31 01:19:17;;;;;;;;;;;3.30;99.90;;;;;;5011871;28;19925;-72
2023/01/31 01:21:43;;;;;;;;;;;3.20;99.90;;;;;;5012531;28;19921;-71
2023/01/31 01:24:13;;;;;;;;;;;3.10;99.90;;;;;;5011072;28;19975;-72
2023/01/31 01:26:39;;;;;;;;;;;3.10;99.90;;;;;;5011786;28;19929;-72
2023/01/31 01:29:04;;;;;;;;;;;3.00;99.90;;;;;;5012755;28;20441;-71
2023/01/31 01:31:30;;;;;;;;;;;3.00;99.90;;;;;;5013413;28;20290;-71
2023/01/31 01:33:57;;;;;;;;;;;2.90;99.90;;;;;;5011895;28;20324;-72
2023/01/31 01:36:23;;;;;;;;;;;3.00;99.90;;;;;;5010242;28;19921;-71
2023/01/31 01:38:48;;;;;;;;;;;2.90;99.90;;;;;;5011767;28;19928;-72
2023/01/31 01:41:14;;;;;;;;;;;2.90;99.90;;;;;;5011916;28;19964;-72
2023/01/31 01:43:39;;;;;;;;;;;2.90;99.90;;;;;;5009820;28;19932;-72
2023/01/31 01:46:06;;;;;;;;;;;2.90;99.90;;;;;;5005430;28;20371;-72
2023/01/31 01:48:31;;;;;;;;;;;2.90;99.90;;;;;;5024839;28;20461;-72
2023/01/31 01:50:57;;;;;;;;;;;2.90;99.90;;;;;;5012925;28;19928;-72
2023/01/31 01:53:26;;;;;;;;;;;3.00;99.90;;;;;;5013443;28;19921;-72
2023/01/31 01:55:56;;;;;;;;;;;3.00;99.90;;;;;;5009653;28;19929;-72
2023/01/31 01:58:27;;;;;;;;;;;3.00;99.90;;;;;;5010666;28;19947;-72
2023/01/31 02:00:53;;;;;;;;;;;3.10;99.90;;;;;;5009225;28;20400;-73
2023/01/31 02:03:18;;;;;;;;;;;3.10;99.90;;;;;;5012386;28;19921;-72
2023/01/31 02:05:45;;;;;;;;;;;3.10;99.90;;;;;;5012920;28;19921;-72
2023/01/31 02:08:12;;;;;;;;;;;3.10;99.90;;;;;;5012246;28;20374;-72
2023/01/31 02:10:48;;;;;;;;;;;3.10;99.90;;;;;;5012096;28;19921;-72
2023/01/31 02:13:14;;;;;;;;;;;3.20;99.90;;;;;;5011365;28;20007;-72
2023/01/31 02:15:39;;;;;;;;;;;3.20;99.90;;;;;;5010778;28;19960;-72
2023/01/31 02:18:06;;;;;;;;;;;3.20;99.90;;;;;;5013375;28;19928;-72
2023/01/31 02:20:44;;;;;;;;;;;3.20;99.90;;;;;;5012288;28;20445;-72
2023/01/31 02:23:09;;;;;;;;;;;3.20;99.90;;;;;;5011382;28;20294;-72
2023/01/31 02:25:38;;;;;;;;;;;3.20;99.90;;;;;;5012328;28;19932;-72
2023/01/31 02:28:19;;;;;;;;;;;3.30;99.90;;;;;;5008818;28;20345;-72
2023/01/31 02:31:03;;;;;;;;;;;3.40;99.90;;;;;;5009840;28;19921;-73
2023/01/31 02:33:31;;;;;;;;;;;3.40;99.90;;;;;;5011612;28;19922;-73
2023/01/31 02:36:02;;;;;;;;;;;3.40;99.90;;;;;;5008619;28;20437;-73
2023/01/31 02:38:46;;;;;;;;;;;3.40;99.90;;;;;;5011468;28;19921;-72
2023/01/31 02:41:22;;;;;;;;;;;3.50;99.90;;;;;;5011180;28;19921;-73
2023/01/31 02:47:12;;;;;;;;;;;3.60;99.90;;;;;;5010949;28;19979;-72
2023/01/31 02:49:50;;;;;;;;;;;3.60;99.90;;;;;;5010779;28;20283;-74
2023/01/31 02:52:38;;;;;;;;;;;3.70;99.90;;;;;;5010765;28;19925;-72
2023/01/31 02:57:52;;;;;;;;;;;3.70;99.90;;;;;;5008569;28;19968;-73
2023/01/31 03:00:18;;;;;;;;;;;3.70;99.90;;;;;;5009657;28;19971;-73
2023/01/31 03:02:43;;;;;;;;;;;3.70;99.90;;;;;;5019246;28;20240;-73
2023/01/31 03:05:16;;;;;;;;;;;3.70;99.90;;;;;;5021697;28;19971;-72
2023/01/31 03:07:46;;;;;;;;;;;3.70;99.90;;;;;;5010314;28;20391;-73
2023/01/31 03:10:21;;;;;;;;;;;3.80;99.90;;;;;;5008734;28;20387;-71
2023/01/31 03:12:47;;;;;;;;;;;3.80;99.90;;;;;;5022989;28;19953;-72
2023/01/31 03:15:24;;;;;;;;;;;3.90;99.90;;;;;;5006647;28;19979;-73
2023/01/31 03:18:12;;;;;;;;;;;3.80;99.90;;;;;;5018085;28;19921;-73
2023/01/31 03:20:39;;;;;;;;;;;3.80;99.90;;;;;;5011564;28;20313;-71
2023/01/31 03:23:23;;;;;;;;;;;3.80;99.90;;;;;;5009300;28;19921;-73
2023/01/31 03:25:49;;;;;;;;;;;3.80;99.90;;;;;;5008328;28;19967;-72
2023/01/31 03:28:17;;;;;;;;;;;3.80;99.90;;;;;;5023980;28;20305;-72
2023/01/31 03:30:49;;;;;;;;;;;3.90;99.90;;;;;;5007370;28;19971;-72
2023/01/31 03:33:18;;;;;;;;;;;3.80;99.90;;;;;;5008940;28;19945;-72
2023/01/31 03:35:46;;;;;;;;;;;3.80;99.90;;;;;;5007136;28;19921;-72
2023/01/31 03:38:16;;;;;;;;;;;3.80;99.90;;;;;;5009047;28;19940;-72
2023/01/31 03:41:01;;;;;;;;;;;3.80;99.90;;;;;;5010395;28;19922;-73
2023/01/31 03:43:30;;;;;;;;;;;3.80;99.90;;;;;;5005473;28;21657;-72
2023/01/31 03:45:58;;;;;;;;;;;3.80;99.90;;;;;;5007442;28;19975;-73
2023/01/31 03:48:30;;;;;;;;;;;4.80;99.90;;;;;;5008456;28;20310;-72
2023/01/31 03:50:57;;;;;;;;;;;3.90;99.90;;;;;;5009069;28;19922;-72
2023/01/31 03:53:23;;;;;;;;;;;3.90;99.90;;;;;;5010603;28;19925;-72
2023/01/31 03:55:52;;;;;;;;;;;4.00;99.90;;;;;;5010095;28;19926;-72
2023/01/31 03:58:19;;;;;;;;;;;4.00;99.90;;;;;;5007237;28;19968;-72
2023/01/31 04:00:46;;;;;;;;;;;4.00;99.90;;;;;;5008591;28;19965;-72
2023/01/31 04:03:18;;;;;;;;;;;4.10;99.90;;;;;;5005911;28;19921;-72
2023/01/31 04:05:45;;;;;;;;;;;4.20;99.90;;;;;;5011407;28;20342;-72
2023/01/31 04:08:10;;;;;;;;;;;4.20;99.90;;;;;;5012967;28;19921;-72
2023/01/31 04:10:36;;;;;;;;;;;4.20;99.90;;;;;;5012573;28;19921;-73
2023/01/31 04:13:02;;;;;;;;;;;4.20;99.90;;;;;;5010748;28;19922;-72
2023/01/31 04:15:27;;;;;;;;;;;4.30;99.90;;;;;;5009616;28;19968;-72
2023/01/31 04:17:53;;;;;;;;;;;4.30;99.90;;;;;;5013348;28;19933;-72
2023/01/31 04:20:19;;;;;;;;;;;4.30;99.90;;;;;;5014428;28;19929;-73
2023/01/31 04:22:44;;;;;;;;;;;4.30;99.90;;;;;;5012328;28;20009;-73
2023/01/31 04:25:10;;;;;;;;;;;4.40;99.90;;;;;;5012791;28;20003;-73
2023/01/31 04:27:35;;;;;;;;;;;4.40;99.90;;;;;;5029357;28;19922;-73
2023/01/31 04:30:01;;;;;;;;;;;4.40;99.90;;;;;;5015956;28;19921;-71
2023/01/31 04:32:26;;;;;;;;;;;4.60;99.90;;;;;;5015918;28;19929;-72
2023/01/31 04:34:52;;;;;;;;;;;4.40;99.90;;;;;;5019492;28;19936;-73
2023/01/31 04:37:17;;;;;;;;;;;4.40;99.90;;;;;;5018771;28;20271;-72
2023/01/31 04:39:43;;;;;;;;;;;4.50;99.90;;;;;;5012494;28;20016;-72
2023/01/31 04:42:08;;;;;;;;;;;4.50;99.90;;;;;;5015201;28;20032;-72
2023/01/31 04:44:34;;;;;;;;;;;4.50;99.90;;;;;;5014240;28;20449;-73
2023/01/31 04:46:59;;;;;;;;;;;4.50;99.90;;;;;;5011838;28;19968;-73
2023/01/31 04:49:25;;;;;;;;;;;4.60;99.90;;;;;;5013333;28;20008;-72
2023/01/31 04:51:51;;;;;;;;;;;4.60;99.90;;;;;;5016715;28;19921;-73
2023/01/31 04:54:17;;;;;;;;;;;4.70;99.90;;;;;;5013746;28;19921;-73
2023/01/31 04:56:42;;;;;;;;;;;4.80;99.90;;;;;;5013495;28;20378;-72
2023/01/31 04:59:08;;;;;;;;;;;4.80;99.90;;;;;;5012809;28;20282;-73
2023/01/31 05:01:33;;;;;;;;;;;4.90;99.90;;;;;;5010616;28;19921;-72
2023/01/31 05:03:59;;;;;;;;;;;4.90;99.90;;;;;;5010350;28;19928;-72
2023/01/31 05:06:24;;;;;;;;;;;4.90;99.90;;;;;;5013984;28;19921;-72
2023/01/31 05:08:53;;;;;;;;;;;4.90;99.90;;;;;;5009672;28;19925;-71
2023/01/31 05:11:19;;;;;;;;;;;5.00;99.90;;;;;;5012450;28;19921;-72
2023/01/31 05:13:44;;;;;;;;;;;5.00;99.90;;;;;;5014696;28;20352;-73
2023/01/31 05:16:10;;;;;;;;;;;5.00;99.90;;;;;;5013423;28;19932;-71
2023/01/31 05:18:36;;;;;;;;;;;5.00;99.90;;;;;;5013020;28;20008;-73
2023/01/31 05:21:02;;;;;;;;;;;5.00;99.90;;;;;;5015884;28;19929;-72
2023/01/31 05:23:29;;;;;;;;;;;5.00;99.90;;;;;;5008555;28;19925;-72
2023/01/31 05:25:54;;;;;;;;;;;5.10;99.90;;;;;;5012827;28;19921;-72
2023/01/31 05:28:20;;;;;;;;;;;5.00;99.90;;;;;;5012074;28;19928;-72
2023/01/31 05:30:45;;;;;;;;;;;5.00;99.90;;;;;;5013519;28;20008;-71
2023/01/31 05:33:11;;;;;;;;;;;5.00;99.90;;;;;;5009123;28;19968;-72
2023/01/31 05:35:38;;;;;;;;;;;5.00;99.90;;;;;;5010677;28;20677;-72
2023/01/31 05:38:03;;;;;;;;;;;5.20;99.90;;;;;;5010931;28;19995;-73
2023/01/31 05:40:29;;;;;;;;;;;5.00;99.90;;;;;;5011740;28;19972;-72
2023/01/31 05:42:55;;;;;;;;;;;5.10;99.90;;;;;;5010671;28;20009;-73
2023/01/31 05:45:21;;;;;;;;;;;5.10;99.90;;;;;;5011799;28;19928;-73
2023/01/31 05:47:47;;;;;;;;;;;5.10;99.90;;;;;;5012683;28;19921;-72
2023/01/31 05:50:13;;;;;;;;;;;5.10;99.90;;;;;;5008850;28;19922;-73
2023/01/31 05:52:38;;;;;;;;;;;5.10;99.90;;;;;;5012881;28;19972;-72
2023/01/31 05:55:04;;;;;;;;;;;5.10;99.90;;;;;;5013132;28;19921;-73
2023/01/31 05:57:29;;;;;;;;;;;5.10;99.90;;;;;;5002795;28;19940;-72
2023/01/31 05:59:55;;;;;;;;;;;5.30;99.90;;;;;;5011517;28;20008;-72
2023/01/31 06:02:21;;;;;;;;;;;5.20;99.90;;;;;;5006720;28;19921;-72
2023/01/31 06:04:46;;;;;;;;;;;5.10;99.90;;;;;;5016036;28;20012;-72
2023/01/31 06:07:12;;;;;;;;;;;5.20;99.90;;;;;;5017353;28;19921;-71
2023/01/31 06:09:39;;;;;;;;;;;5.10;99.90;;;;;;5013728;28;19925;-73
2023/01/31 06:12:05;;;;;;;;;;;5.20;99.90;;;;;;5006171;28;19948;-72
2023/01/31 06:14:31;;;;;;;;;;;5.20;99.90;;;;;;5009427;28;19925;-72
2023/01/31 06:16:56;;;;;;;;;;;5.20;99.90;;;;;;5011069;28;20428;-72
2023/01/31 06:19:24;;;;;;;;;;;5.20;99.90;;;;;;5006152;28;19921;-72
2023/01/31 06:21:52;;;;;;;;;;;5.20;99.90;;;;;;5008320;28;19921;-72
2023/01/31 06:24:18;;;;;;;;;;;5.30;99.90;;;;;;5009252;28;19922;-72
2023/01/31 06:26:43;;;;;;;;;;;5.50;99.90;;;;;;5006223;28;19921;-73
2023/01/31 06:29:09;;;;;;;;;;;5.20;99.90;;;;;;5006317;28;19995;-72
2023/01/31 06:31:34;;;;;;;;;;;5.30;99.90;;;;;;5008189;28;20378;-72
2023/01/31 06:34:00;;;;;;;;;;;5.30;99.90;;;;;;5010445;28;20343;-72
2023/01/31 06:36:25;;;;;;;;;;;5.30;99.90;;;;;;5011892;28;19975;-72
2023/01/31 06:38:51;;;;;;;;;;;5.30;99.90;;;;;;5008219;28;19921;-72
2023/01/31 06:41:20;;;;;;;;;;;5.30;99.90;;;;;;5010629;28;19926;-72
2023/01/31 06:43:45;;;;;;;;;;;5.40;99.90;;;;;;5009719;28;20298;-73
2023/01/31 06:46:11;;;;;;;;;;;5.30;99.90;;;;;;5013352;28;19929;-72
2023/01/31 06:48:36;;;;;;;;;;;5.30;99.90;;;;;;5011004;28;19996;-73
2023/01/31 06:51:02;;;;;;;;;;;5.30;99.90;;;;;;5012506;28;20350;-72
2023/01/31 06:53:27;;;;;;;;;;;5.30;99.90;;;;;;5011693;28;19921;-72
2023/01/31 06:55:53;;;;;;;;;;;5.40;99.90;;;;;;5013674;28;19921;-72
2023/01/31 06:58:19;;;;;;;;;;;5.40;99.90;;;;;;5011065;28;20298;-71
2023/01/31 07:00:44;;;;;;;;;;;5.40;99.90;;;;;;5012665;28;19921;-72
2023/01/31 07:03:10;;;;;;;;;;;5.40;99.90;;;;;;5010862;28;19948;-72
2023/01/31 07:05:35;;;;;;;;;;;5.30;99.90;;;;;;5010995;28;19921;-72
2023/01/31 07:08:01;;;;;;;;;;;5.40;99.90;;;;;;5010244;28;20355;-73
2023/01/31 07:10:26;;;;;;;;;;;5.50;99.90;;;;;;5013623;28;19991;-73
2023/01/31 07:12:52;;;;;;;;;;;5.40;99.90;;;;;;5013587;28;20329;-72
2023/01/31 07:15:17;;;;;;;;;;;6.10;99.90;;;;;;5011716;28;20926;-73
2023/01/31 07:17:43;;;;;;;;;;;5.40;99.90;;;;;;5011907;28;19921;-73
2023/01/31 07:20:09;;;;;;;;;;;5.40;99.90;;;;;;5012796;28;19921;-72
2023/01/31 07:22:34;;;;;;;;;;;5.50;99.90;;;;;;5010452;28;19967;-72
2023/01/31 07:25:00;;;;;;;;;;;5.50;99.90;;;;;;5011787;28;19960;-73
2023/01/31 07:27:26;;;;;;;;;;;5.50;99.90;;;;;;5012673;28;19968;-74
2023/01/31 07:29:51;;;;;;;;;;;5.50;99.90;;;;;;4993499;28;20313;-72
2023/01/31 07:32:17;;;;;;;;;;;6.20;99.90;;;;;;5008605;28;20454;-72
2023/01/31 07:34:43;;;;;;;;;;;5.50;99.90;;;;;;5012822;28;19922;-72
2023/01/31 07:37:08;;;;;;;;;;;5.50;99.90;;;;;;5020480;28;20268;-72
2023/01/31 07:39:34;;;;;;;;;;;5.50;99.90;;;;;;5019531;28;19921;-72
2023/01/31 07:41:59;;;;;;;;;;;5.50;99.90;;;;;;5013598;28;19922;-72
2023/01/31 07:44:25;;;;;;;;;;;5.50;99.90;;;;;;5011114;28;20036;-72
2023/01/31 07:46:53;;;;;;;;;;;5.60;99.90;;;;;;5012092;28;19928;-72
2023/01/31 07:49:19;;;;;;;;;;;5.60;99.90;;;;;;5012492;28;19929;-72
2023/01/31 07:51:44;;;;;;;;;;;5.60;99.90;;;;;;5009618;28;19922;-72
2023/01/31 07:54:10;;;;;;;;;;;5.60;99.90;;;;;;5008077;28;19952;-73
2023/01/31 07:56:36;;;;;;;;;;;5.70;99.90;;;;;;5004073;28;20351;-73
2023/01/31 07:59:02;;;;;;;;;;;5.60;99.90;;;;;;5009053;28;20008;-72
2023/01/31 08:04:15;;;;;;;;;;;5.70;99.90;;;;;;5017025;28;19922;-72
2023/01/31 08:06:42;;;;;;;;;;;5.70;99.90;;;;;;5013305;28;20414;-73
2023/01/31 08:09:07;;;;;;;;;;;5.70;99.90;;;;;;5012136;28;20295;-73
2023/01/31 08:11:33;;;;;;;;;;;5.70;99.90;;;;;;5012135;28;19932;-73
2023/01/31 08:13:58;;;;;;;;;;;5.80;99.90;;;;;;5012802;28;20374;-73
2023/01/31 08:16:24;;;;;;;;;;;5.80;99.90;;;;;;5013534;28;20287;-73
2023/01/31 08:18:50;;;;;;;;;;;5.80;99.90;;;;;;5011345;28;19922;-73
2023/01/31 08:21:16;;;;;;;;;;;5.80;99.90;;;;;;5013055;28;19944;-72
2023/01/31 08:23:41;;;;;;;;;;;5.90;99.90;;;;;;5010691;28;20016;-72
2023/01/31 08:26:11;;;;;;;;;;;6.70;99.90;;;;;;5013007;28;19983;-72
2023/01/31 08:28:37;;;;;;;;;;;6.00;99.90;;;;;;5012286;28;20279;-73
2023/01/31 08:31:03;;;;;;;;;;;5.90;99.90;;;;;;5011987;28;19921;-73
2023/01/31 08:33:28;;;;;;;;;;;5.90;99.90;;;;;;5012864;28;19921;-73
2023/01/31 08:35:54;;;;;;;;;;;6.00;99.90;;;;;;5012410;28;19921;-73
2023/01/31 08:38:20;;;;;;;;;;;6.20;99.90;;;;;;5012612;28;20274;-72
2023/01/31 08:40:45;;;;;;;;;;;6.00;99.90;;;;;;5013129;28;19922;-72
2023/01/31 08:43:11;;;;;;;;;;;6.00;99.90;;;;;;5012717;28;19961;-72
2023/01/31 08:45:36;;;;;;;;;;;6.00;99.90;;;;;;5013055;28;19929;-72
2023/01/31 08:48:02;;;;;;;;;;;6.00;99.90;;;;;;5012380;28;20283;-73
2023/01/31 08:50:29;;;;;;;;;;;6.10;99.90;;;;;;5015794;28;19926;-72
2023/01/31 08:52:55;;;;;;;;;;;6.10;99.90;;;;;;5014401;28;19976;-71
2023/01/31 08:55:21;;;;;;;;;;;6.10;99.90;;;;;;5015383;28;19922;-72
2023/01/31 08:57:47;;;;;;;;;;;6.20;99.90;;;;;;5015025;28;19921;-73
2023/01/31 09:00:13;;;;;;;;;;;6.20;99.90;;;;;;5015037;28;20410;-72
2023/01/31 09:02:38;;;;;;;;;;;6.20;99.90;;;;;;5015775;28;20004;-73
2023/01/31 09:05:07;;;;;;;;;;;6.20;99.90;;;;;;5016383;28;19921;-73
2023/01/31 09:07:33;;;;;;;;;;;6.30;99.90;;;;;;5021534;28;20294;-73
2023/01/31 09:09:58;;;;;;;;;;;6.40;99.90;;;;;;5018729;28;19971;-72
2023/01/31 09:12:24;;;;;;;;;;;6.30;99.90;;;;;;5016103;28;19960;-72
2023/01/31 09:14:50;;;;;;;;;;;6.30;99.90;;;;;;5016301;28;19922;-72
2023/01/31 09:17:16;;;;;;;;;;;6.30;99.90;;;;;;5015460;28;19983;-72
2023/01/31 09:19:41;;;;;;;;;;;6.40;99.90;;;;;;5016518;28;20374;-72
2023/01/31 09:22:07;;;;;;;;;;;6.40;99.90;;;;;;5016155;28;19928;-72
2023/01/31 09:24:33;;;;;;;;;;;6.40;99.90;;;;;;5016076;28;20034;-72
2023/01/31 09:26:58;;;;;;;;;;;6.40;99.90;;;;;;5016251;28;20268;-73
2023/01/31 09:29:24;;;;;;;;;;;6.40;99.90;;;;;;5016681;28;20008;-72
2023/01/31 09:31:50;;;;;;;;;;;6.40;99.90;;;;;;5026792;28;19921;-72
2023/01/31 09:34:16;;;;;;;;;;;6.40;99.90;;;;;;5014669;28;19922;-72
2023/01/31 09:36:41;;;;;;;;;;;6.50;99.90;;;;;;5016157;28;19974;-73
2023/01/31 09:39:09;;;;;;;;;;;6.40;99.90;;;;;;5014953;28;19921;-73
2023/01/31 09:41:46;;;;;;;;;;;6.60;99.90;;;;;;5015454;28;19925;-73
2023/01/31 09:44:18;;;;;;;;;;;6.50;99.90;;;;;;5015215;28;19922;-72
2023/01/31 09:46:50;;;;;;;;;;;6.50;99.90;;;;;;5015152;28;19921;-71
2023/01/31 09:49:27;;;;;;;;;;;6.50;99.90;;;;;;5013474;28;20291;-71
2023/01/31 09:51:54;;;;;;;;;;;6.50;99.90;;;;;;5014902;28;19968;-72
2023/01/31 09:54:22;;;;;;;;;;;6.50;99.90;;;;;;5014337;28;19929;-72
2023/01/31 09:56:53;;;;;;;;;;;6.50;99.90;;;;;;5013337;28;20379;-71
2023/01/31 09:59:24;;;;;;;;;;;6.50;99.90;;;;;;5014235;28;19921;-71
2023/01/31 10:01:52;;;;;;;;;;;6.40;99.90;;;;;;5014078;28;19921;-72
2023/01/31 10:04:24;;;;;;;;;;;6.50;99.90;;;;;;5028912;28;20461;-72
2023/01/31 10:07:00;;;;;;;;;;;6.50;99.90;;;;;;5015253;28;19928;-72
2023/01/31 10:09:32;;;;;;;;;;;6.60;99.90;;;;;;5014056;28;19925;-71
2023/01/31 10:11:59;;;;;;;;;;;6.60;99.90;;;;;;5014555;28;19944;-72
2023/01/31 10:14:45;;;;;;;;;;;6.60;99.90;;;;;;5015021;28;19925;-71
2023/01/31 10:17:11;;;;;;;;;;;6.70;99.90;;;;;;5014285;28;19921;-72
2023/01/31 10:19:57;;;;;;;;;;;6.70;99.90;;;;;;5012784;28;19921;-72
2023/01/31 10:22:41;;;;;;;;;;;6.70;99.90;;;;;;5003923;28;19922;-72
2023/01/31 10:25:12;;;;;;;;;;;6.70;99.90;;;;;;4994896;28;19933;-72
2023/01/31 10:27:44;;;;;;;;;;;6.70;99.90;;;;;;5005340;28;19922;-72
2023/01/31 10:30:14;;;;;;;;;;;6.70;99.90;;;;;;5014242;28;19976;-72
2023/01/31 10:32:43;;;;;;;;;;;6.70;99.90;;;;;;5013866;28;20058;-71
2023/01/31 10:35:15;;;;;;;;;;;6.80;99.90;;;;;;5012882;28;19921;-72
2023/01/31 10:37:43;;;;;;;;;;;6.70;99.90;;;;;;5014066;28;20370;-72
2023/01/31 10:40:17;;;;;;;;;;;6.70;99.90;;;;;;5018221;28;20436;-72
2023/01/31 10:42:48;;;;;;;;;;;6.70;99.90;;;;;;5014505;28;19960;-71
2023/01/31 10:45:18;;;;;;;;;;;6.60;99.90;;;;;;5013319;28;20397;-72
2023/01/31 10:47:50;;;;;;;;;;;6.60;99.90;;;;;;5013450;28;20424;-73
2023/01/31 10:50:15;;;;;;;;;;;6.60;99.90;;;;;;5012516;28;19925;-72
2023/01/31 10:52:44;;;;;;;;;;;6.60;99.90;;;;;;5011285;28;20360;-72
2023/01/31 10:55:12;;;;;;;;;;;6.60;99.90;;;;;;5013945;28;20567;-72
2023/01/31 10:57:38;;;;;;;;;;;6.60;99.90;;;;;;5013086;28;19922;-72
2023/01/31 11:00:04;;;;;;;;;;;6.70;99.90;;;;;;5013849;28;20012;-72
2023/01/31 11:02:29;;;;;;;;;;;6.60;99.90;;;;;;5013702;28;20370;-71
2023/01/31 11:04:56;;;;;;;;;;;6.90;99.90;;;;;;5012757;28;19972;-72
2023/01/31 11:07:22;;;;;;;;;;;6.60;99.90;;;;;;5014743;28;21375;-71
2023/01/31 11:09:53;;;;;;;;;;;6.60;99.90;;;;;;5013103;28;19970;-72
2023/01/31 11:12:19;;;;;;;;;;;6.60;99.90;;;;;;5014631;28;19925;-72
2023/01/31 11:14:44;;;;;;;;;;;6.70;99.90;;;;;;5011476;28;19929;-72
2023/01/31 11:17:16;;;;;;;;;;;6.70;99.90;;;;;;5012718;28;20390;-72
2023/01/31 11:19:45;;;;;;;;;;;6.70;99.90;;;;;;5013329;28;20278;-72
2023/01/31 11:22:23;;;;;;;;;;;6.70;99.90;;;;;;5013582;28;19921;-72
2023/01/31 11:24:49;;;;;;;;;;;6.70;99.90;;;;;;5021689;28;19928;-72
2023/01/31 11:27:41;;;;;;;;;;;6.70;99.90;;;;;;5012679;28;19921;-72
2023/01/31 11:30:18;;;;;;;;;;;6.70;99.90;;;;;;5009520;28;20416;-72
2023/01/31 11:32:44;;;;;;;;;;;6.80;99.90;;;;;;5013011;28;19925;-73
2023/01/31 11:35:13;;;;;;;;;;;6.70;99.90;;;;;;5011991;28;20412;-72
2023/01/31 11:37:48;;;;;;;;;;;6.80;99.90;;;;;;5012652;28;19922;-73
2023/01/31 11:40:14;;;;;;;;;;;6.80;99.90;;;;;;5012343;28;19927;-73
2023/01/31 11:43:15;;;;;;;;;;;6.80;99.90;;;;;;5013153;28;20294;-73
2023/01/31 11:45:44;;;;;;;;;;;6.80;99.90;;;;;;4988221;28;20446;-72
2023/01/31 11:48:22;;;;;;;;;;;6.90;99.90;;;;;;5004590;28;20055;-73
2023/01/31 11:50:51;;;;;;;;;;;6.90;99.90;;;;;;5012268;28;19925;-73
2023/01/31 11:53:27;;;;;;;;;;;6.90;99.90;;;;;;5012748;28;20083;-73
2023/01/31 11:55:54;;;;;;;;;;;6.90;99.90;;;;;;5010995;28;19921;-71
2023/01/31 11:58:20;;;;;;;;;;;7.00;99.90;;;;;;5011053;28;19925;-73
2023/01/31 12:01:14;;;;;;;;;;;7.00;99.90;;;;;;5028808;28;20371;-73
2023/01/31 12:03:47;;;;;;;;;;;7.00;99.90;;;;;;5003353;28;20028;-73
2023/01/31 12:06:25;;;;;;;;;;;7.00;99.90;;;;;;5012646;28;20034;-73
2023/01/31 12:08:53;;;;;;;;;;;7.10;99.90;;;;;;5014931;28;19936;-71
2023/01/31 12:11:18;;;;;;;;;;;7.10;99.90;;;;;;5018092;28;20362;-71
2023/01/31 12:13:45;;;;;;;;;;;7.20;99.90;;;;;;5013526;28;19921;-72
2023/01/31 12:16:11;;;;;;;;;;;7.20;99.90;;;;;;5012781;28;19921;-71
2023/01/31 12:18:46;;;;;;;;;;;7.40;99.90;;;;;;5011694;28;19929;-71
2023/01/31 12:21:32;;;;;;;;;;;7.40;99.90;;;;;;5013440;28;19925;-72
2023/01/31 12:24:01;;;;;;;;;;;7.60;99.90;;;;;;5013012;28;19975;-72
2023/01/31 12:26:46;;;;;;;;;;;7.50;99.90;;;;;;5016970;28;20016;-72
2023/01/31 12:29:29;;;;;;;;;;;7.60;99.90;;;;;;5016370;28;20289;-72
2023/01/31 12:31:55;;;;;;;;;;;7.60;99.90;;;;;;5015775;28;19921;-73
2023/01/31 12:34:20;;;;;;;;;;;7.60;99.90;;;;;;5015901;28;19922;-72
2023/01/31 12:36:52;;;;;;;;;;;7.70;99.90;;;;;;5017055;28;19922;-73
2023/01/31 12:39:31;;;;;;;;;;;7.80;99.90;;;;;;5015347;28;20285;-72
2023/01/31 12:42:12;;;;;;;;;;;7.80;99.90;;;;;;5016334;28;20306;-72
2023/01/31 12:44:48;;;;;;;;;;;7.80;99.90;;;;;;5016414;28;19921;-72
2023/01/31 12:47:23;;;;;;;;;;;7.80;99.90;;;;;;5016522;28;19928;-72
2023/01/31 12:50:07;;;;;;;;;;;7.80;99.90;;;;;;5009453;28;19922;-73
2023/01/31 12:52:33;;;;;;;;;;;7.90;99.90;;;;;;5022763;28;20004;-72
2023/01/31 12:55:14;;;;;;;;;;;7.80;99.90;;;;;;5009944;28;20017;-72
2023/01/31 12:57:46;;;;;;;;;;;7.90;99.90;;;;;;4997579;28;19926;-74
2023/01/31 13:00:16;;;;;;;;;;;7.90;99.90;;;;;;5015464;28;19921;-73
2023/01/31 13:03:01;;;;;;;;;;;7.90;99.90;;;;;;5012244;28;19944;-74
2023/01/31 13:05:33;;;;;;;;;;;7.90;99.90;;;;;;5013745;28;20275;-73
2023/01/31 13:08:02;;;;;;;;;;;7.90;99.90;;;;;;4997902;28;19929;-73
2023/01/31 13:10:32;;;;;;;;;;;8.00;99.90;;;;;;5008633;28;20016;-73
2023/01/31 13:12:58;;;;;;;;;;;8.10;99.90;;;;;;5014833;28;20290;-73
2023/01/31 13:15:24;;;;;;;;;;;8.10;99.90;;;;;;5011272;28;19941;-73
2023/01/31 13:17:53;;;;;;;;;;;8.10;99.90;;;;;;5012206;28;19925;-73
2023/01/31 13:20:27;;;;;;;;;;;8.10;99.90;;;;;;5013067;28;19922;-73
2023/01/31 13:22:54;;;;;;;;;;;8.10;99.90;;;;;;5013710;28;20313;-73
2023/01/31 13:25:23;;;;;;;;;;;8.10;99.90;;;;;;5015722;28;19953;-73
2023/01/31 13:27:59;;;;;;;;;;;8.20;99.90;;;;;;5015055;28;19921;-73
2023/01/31 13:30:24;;;;;;;;;;;8.20;99.90;;;;;;5014462;28;19921;-72
2023/01/31 13:32:51;;;;;;;;;;;8.20;99.90;;;;;;5015366;28;19925;-73
2023/01/31 13:35:21;;;;;;;;;;;8.30;99.90;;;;;;5013690;28;19921;-73
2023/01/31 13:37:48;;;;;;;;;;;8.30;99.90;;;;;;5014877;28;19984;-72
2023/01/31 13:40:20;;;;;;;;;;;8.40;99.90;;;;;;5017117;28;20106;-72
2023/01/31 13:42:46;;;;;;;;;;;8.30;99.90;;;;;;5015732;28;19973;-72
2023/01/31 13:45:20;;;;;;;;;;;8.30;99.90;;;;;;5013496;28;20440;-72
2023/01/31 13:47:49;;;;;;;;;;;8.30;99.90;;;;;;5007690;28;20362;-73
2023/01/31 13:50:31;;;;;;;;;;;8.30;99.90;;;;;;5014255;28;19928;-72
2023/01/31 13:53:00;;;;;;;;;;;8.30;99.90;;;;;;5005646;28;19921;-72
2023/01/31 13:55:32;;;;;;;;;;;8.40;99.90;;;;;;5012434;28;19921;-72
2023/01/31 13:58:02;;;;;;;;;;;8.40;99.90;;;;;;5014158;28;19925;-71
2023/01/31 14:00:34;;;;;;;;;;;8.40;99.90;;;;;;5015264;28;19927;-71
2023/01/31 14:03:00;;;;;;;;;;;8.40;99.90;;;;;;5015095;28;19980;-72
2023/01/31 14:05:44;;;;;;;;;;;8.40;99.90;;;;;;5013759;28;20406;-72
2023/01/31 14:08:28;;;;;;;;;;;8.40;99.90;;;;;;5014051;28;20007;-73
2023/01/31 14:10:55;;;;;;;;;;;8.40;99.90;;;;;;5005679;28;19965;-72
2023/01/31 14:13:25;;;;;;;;;;;8.40;99.90;;;;;;5013256;28;20008;-72
2023/01/31 14:15:51;;;;;;;;;;;8.40;99.90;;;;;;5013215;28;20104;-72
2023/01/31 14:18:34;;;;;;;;;;;8.40;99.90;;;;;;5014266;28;19960;-72
2023/01/31 14:21:18;;;;;;;;;;;8.30;99.90;;;;;;5014046;28;19922;-72
2023/01/31 14:23:45;;;;;;;;;;;8.30;99.90;;;;;;5013985;28;20398;-72
2023/01/31 14:26:31;;;;;;;;;;;8.30;99.90;;;;;;5014581;28;19921;-72
2023/01/31 14:28:56;;;;;;;;;;;8.30;99.90;;;;;;5012508;28;20405;-72
2023/01/31 14:31:22;;;;;;;;;;;8.30;99.90;;;;;;5014381;28;19922;-72
2023/01/31 14:33:49;;;;;;;;;;;8.30;99.90;;;;;;5013710;28;19921;-73
2023/01/31 14:36:30;;;;;;;;;;;8.20;99.90;;;;;;5013174;28;19944;-73
2023/01/31 14:39:05;;;;;;;;;;;8.20;99.90;;;;;;5010751;28;19921;-72
2023/01/31 14:41:49;;;;;;;;;;;8.00;99.90;;;;;;5014434;28;20374;-72
2023/01/31 14:44:33;;;;;;;;;;;8.00;99.90;;;;;;5011243;28;19932;-72
2023/01/31 14:47:06;;;;;;;;;;;8.00;99.90;;;;;;5005959;28;19997;-72
2023/01/31 14:49:44;;;;;;;;;;;8.00;99.90;;;;;;5012426;28;19921;-72